createdAt,value
2018-03-06T00:00:37.141Z,2.42
2018-03-06T00:01:37.091Z,2.42
2018-03-06T00:02:37.032Z,2.41
2018-03-06T00:03:36.979Z,2.46
2018-03-06T00:04:36.926Z,2.43
2018-03-06T00:05:36.873Z,2.42
2018-03-06T00:06:36.821Z,2.43
2018-03-06T00:07:36.767Z,2.42
2018-03-06T00:08:36.719Z,2.31
2018-03-06T00:09:36.661Z,2.45
2018-03-06T00:10:36.608Z,2.34
2018-03-06T00:11:36.554Z,2.43
2018-03-06T00:12:36.500Z,2.30
2018-03-06T00:13:36.448Z,2.31
2018-03-06T00:14:36.395Z,2.27
2018-03-06T00:15:36.341Z,2.31
2018-03-06T00:16:36.288Z,2.30
2018-03-06T00:17:36.235Z,2.31
2018-03-06T00:18:36.182Z,2.28
2018-03-06T00:19:36.128Z,2.27
2018-03-06T00:20:36.075Z,2.27
2018-03-06T00:21:36.022Z,2.38
2018-03-06T00:22:35.970Z,2.27
2018-03-06T00:23:35.916Z,2.31
2018-03-06T00:24:35.864Z,2.31
2018-03-06T00:25:35.810Z,2.34
2018-03-06T00:26:35.758Z,2.30
2018-03-06T00:27:35.703Z,2.35
2018-03-06T00:28:35.650Z,2.25
2018-03-06T00:29:35.597Z,2.28
2018-03-06T00:30:35.544Z,2.30
2018-03-06T00:31:35.489Z,2.20
2018-03-06T00:32:35.437Z,2.20
2018-03-06T00:33:35.384Z,2.27
2018-03-06T00:34:35.331Z,2.25
2018-03-06T00:35:35.277Z,2.28
2018-03-06T00:36:35.224Z,2.23
2018-03-06T00:37:35.171Z,2.23
2018-03-06T00:38:35.118Z,2.20
2018-03-06T00:39:35.064Z,2.16
2018-03-06T00:40:35.012Z,2.17
2018-03-06T00:41:34.958Z,2.16
2018-03-06T00:42:34.905Z,2.17
2018-03-06T00:43:34.851Z,2.21
2018-03-06T00:44:34.798Z,2.14
2018-03-06T00:45:34.745Z,2.16
2018-03-06T00:46:34.691Z,2.18
2018-03-06T00:47:34.637Z,2.21
2018-03-06T00:48:34.585Z,2.21
2018-03-06T00:49:34.532Z,2.18
2018-03-06T00:50:34.478Z,2.16
2018-03-06T00:51:34.425Z,2.18
2018-03-06T00:52:34.372Z,2.20
2018-03-06T00:53:34.319Z,2.27
2018-03-06T00:54:34.265Z,2.16
2018-03-06T00:55:34.212Z,2.20
2018-03-06T00:56:34.159Z,2.17
2018-03-06T00:57:34.108Z,2.24
2018-03-06T00:58:34.054Z,2.09
2018-03-06T00:59:33.999Z,2.20
2018-03-06T01:00:33.946Z,2.23
2018-03-06T01:01:33.893Z,2.10
2018-03-06T01:02:33.840Z,2.17
2018-03-06T01:03:33.787Z,2.23
2018-03-06T01:04:33.734Z,2.25
2018-03-06T01:05:33.681Z,2.14
2018-03-06T01:06:33.628Z,2.16
2018-03-06T01:07:33.574Z,2.20
2018-03-06T01:08:33.520Z,2.17
2018-03-06T01:09:33.468Z,2.18
2018-03-06T01:10:33.415Z,2.12
2018-03-06T01:11:33.362Z,2.16
2018-03-06T01:12:33.311Z,2.23
2018-03-06T01:13:33.255Z,2.16
2018-03-06T01:14:33.203Z,2.12
2018-03-06T01:15:33.149Z,2.16
2018-03-06T01:16:33.094Z,2.21
2018-03-06T01:17:33.043Z,2.21
2018-03-06T01:18:32.990Z,2.20
2018-03-06T01:19:32.936Z,2.10
2018-03-06T01:20:32.884Z,2.24
2018-03-06T01:21:32.830Z,2.30
2018-03-06T01:22:32.777Z,2.20
2018-03-06T01:23:32.724Z,2.24
2018-03-06T01:24:32.673Z,2.09
2018-03-06T01:25:32.621Z,2.12
2018-03-06T01:26:32.566Z,2.18
2018-03-06T01:27:32.510Z,2.06
2018-03-06T01:28:32.464Z,2.12
2018-03-06T01:29:32.405Z,2.18
2018-03-06T01:30:32.351Z,2.07
2018-03-06T01:31:32.338Z,2.14
2018-03-06T01:32:32.246Z,2.18
2018-03-06T01:33:32.192Z,2.10
2018-03-06T01:34:32.142Z,2.05
2018-03-06T01:35:32.085Z,2.18
2018-03-06T01:36:32.032Z,2.18
2018-03-06T01:37:31.992Z,2.14
2018-03-06T01:38:31.927Z,2.16
2018-03-06T01:39:31.873Z,2.09
2018-03-06T01:40:31.820Z,2.07
2018-03-06T01:41:31.770Z,2.18
2018-03-06T01:42:31.713Z,2.10
2018-03-06T01:43:31.684Z,2.06
2018-03-06T01:44:31.607Z,2.09
2018-03-06T01:45:31.554Z,2.07
2018-03-06T01:46:31.502Z,2.00
2018-03-06T01:47:31.448Z,2.07
2018-03-06T01:48:31.396Z,2.09
2018-03-06T01:49:31.386Z,2.12
2018-03-06T01:50:31.289Z,2.07
2018-03-06T01:51:31.236Z,1.99
2018-03-06T01:52:31.182Z,1.99
2018-03-06T01:53:31.130Z,1.99
2018-03-06T01:54:31.077Z,1.91
2018-03-06T01:55:31.022Z,1.99
2018-03-06T01:56:31.011Z,2.03
2018-03-06T01:57:30.917Z,1.93
2018-03-06T01:58:30.864Z,1.91
2018-03-06T01:59:30.810Z,1.90
2018-03-06T02:00:30.756Z,2.02
2018-03-06T02:01:30.704Z,1.90
2018-03-06T02:02:30.651Z,1.88
2018-03-06T02:03:30.596Z,1.86
2018-03-06T02:04:30.543Z,1.98
2018-03-06T02:05:30.493Z,1.90
2018-03-06T02:06:30.438Z,1.91
2018-03-06T02:07:30.383Z,1.81
2018-03-06T02:08:30.331Z,1.72
2018-03-06T02:09:30.279Z,1.81
2018-03-06T02:10:30.226Z,1.77
2018-03-06T02:11:30.170Z,1.81
2018-03-06T02:12:30.117Z,1.81
2018-03-06T02:13:30.063Z,1.83
2018-03-06T02:14:30.010Z,1.77
2018-03-06T02:15:29.956Z,1.86
2018-03-06T02:16:29.903Z,1.84
2018-03-06T02:17:29.850Z,1.91
2018-03-06T02:18:29.797Z,1.86
2018-03-06T02:19:29.743Z,1.95
2018-03-06T02:20:29.689Z,1.91
2018-03-06T02:21:29.639Z,1.87
2018-03-06T02:22:29.583Z,1.87
2018-03-06T02:23:29.529Z,1.95
2018-03-06T02:24:29.476Z,1.88
2018-03-06T02:25:29.422Z,1.91
2018-03-06T02:26:29.369Z,1.83
2018-03-06T02:27:29.315Z,1.83
2018-03-06T02:28:29.265Z,1.73
2018-03-06T02:29:29.209Z,1.84
2018-03-06T02:30:29.206Z,1.81
2018-03-06T02:31:29.102Z,1.83
2018-03-06T02:32:29.048Z,1.80
2018-03-06T02:33:28.997Z,1.72
2018-03-06T02:34:28.943Z,1.83
2018-03-06T02:35:28.890Z,1.80
2018-03-06T02:36:28.834Z,1.80
2018-03-06T02:37:28.781Z,1.80
2018-03-06T02:38:28.728Z,1.79
2018-03-06T02:39:28.674Z,1.80
2018-03-06T02:40:28.621Z,1.79
2018-03-06T02:41:28.569Z,1.80
2018-03-06T02:42:28.514Z,1.73
2018-03-06T02:43:28.462Z,1.80
2018-03-06T02:44:28.407Z,1.76
2018-03-06T02:45:28.354Z,1.83
2018-03-06T02:46:28.300Z,1.80
2018-03-06T02:47:28.247Z,1.79
2018-03-06T02:48:28.194Z,1.80
2018-03-06T02:49:28.140Z,1.76
2018-03-06T02:50:28.087Z,1.77
2018-03-06T02:51:28.033Z,1.73
2018-03-06T02:52:27.979Z,1.80
2018-03-06T02:53:27.927Z,1.83
2018-03-06T02:54:27.873Z,1.79
2018-03-06T02:55:27.819Z,1.77
2018-03-06T02:56:27.766Z,1.77
2018-03-06T02:57:27.713Z,1.73
2018-03-06T02:58:27.661Z,1.77
2018-03-06T02:59:27.605Z,1.72
2018-03-06T03:00:27.552Z,1.77
2018-03-06T03:01:27.499Z,1.72
2018-03-06T03:02:27.445Z,1.80
2018-03-06T03:03:27.391Z,1.69
2018-03-06T03:04:27.339Z,1.79
2018-03-06T03:05:27.285Z,1.65
2018-03-06T03:06:27.232Z,1.73
2018-03-06T03:07:27.177Z,1.69
2018-03-06T03:08:27.125Z,1.66
2018-03-06T03:09:27.071Z,1.66
2018-03-06T03:10:27.024Z,1.65
2018-03-06T03:11:26.963Z,1.54
2018-03-06T03:12:26.910Z,1.59
2018-03-06T03:13:26.858Z,1.54
2018-03-06T03:14:26.804Z,1.60
2018-03-06T03:15:26.750Z,1.58
2018-03-06T03:16:26.697Z,1.55
2018-03-06T03:17:26.643Z,1.55
2018-03-06T03:18:26.590Z,1.59
2018-03-06T03:19:26.536Z,1.60
2018-03-06T03:20:26.483Z,1.55
2018-03-06T03:21:26.429Z,1.55
2018-03-06T03:22:26.376Z,1.62
2018-03-06T03:23:26.321Z,1.59
2018-03-06T03:24:26.269Z,1.60
2018-03-06T03:25:26.217Z,1.55
2018-03-06T03:26:26.162Z,1.59
2018-03-06T03:27:26.108Z,1.59
2018-03-06T03:28:26.056Z,1.60
2018-03-06T03:29:26.001Z,1.60
2018-03-06T03:30:25.950Z,1.60
2018-03-06T03:31:25.895Z,1.44
2018-03-06T03:32:25.840Z,1.58
2018-03-06T03:33:25.788Z,1.62
2018-03-06T03:34:25.734Z,1.52
2018-03-06T03:35:25.679Z,1.48
2018-03-06T03:36:25.626Z,1.42
2018-03-06T03:37:25.573Z,1.42
2018-03-06T03:38:25.519Z,1.54
2018-03-06T03:39:25.466Z,1.47
2018-03-06T03:40:25.411Z,1.54
2018-03-06T03:41:25.359Z,1.59
2018-03-06T03:42:25.307Z,1.51
2018-03-06T03:43:25.252Z,1.42
2018-03-06T03:44:25.197Z,1.50
2018-03-06T03:45:25.144Z,1.59
2018-03-06T03:46:25.091Z,1.60
2018-03-06T03:47:25.036Z,1.47
2018-03-06T03:48:24.982Z,1.51
2018-03-06T03:49:24.932Z,1.51
2018-03-06T03:50:24.876Z,1.66
2018-03-06T03:51:24.821Z,1.50
2018-03-06T03:52:24.768Z,1.54
2018-03-06T03:53:24.714Z,1.59
2018-03-06T03:54:24.661Z,1.60
2018-03-06T03:55:24.607Z,1.60
2018-03-06T03:56:24.654Z,1.50
2018-03-06T03:57:24.500Z,1.58
2018-03-06T03:58:24.446Z,1.47
2018-03-06T03:59:24.392Z,1.62
2018-03-06T04:00:24.340Z,1.59
2018-03-06T04:01:24.288Z,1.47
2018-03-06T04:02:24.240Z,1.51
2018-03-06T04:03:24.178Z,1.44
2018-03-06T04:04:24.125Z,1.54
2018-03-06T04:05:24.072Z,1.50
2018-03-06T04:06:24.018Z,1.51
2018-03-06T04:07:23.964Z,1.51
2018-03-06T04:08:23.913Z,1.48
2018-03-06T04:09:23.857Z,1.47
2018-03-06T04:10:23.803Z,1.60
2018-03-06T04:11:23.754Z,1.62
2018-03-06T04:12:23.697Z,1.63
2018-03-06T04:13:23.643Z,1.59
2018-03-06T04:14:23.589Z,1.55
2018-03-06T04:15:23.535Z,1.58
2018-03-06T04:16:23.489Z,1.62
2018-03-06T04:17:23.434Z,1.59
2018-03-06T04:18:23.376Z,1.54
2018-03-06T04:19:23.322Z,1.52
2018-03-06T04:20:23.268Z,1.48
2018-03-06T04:21:23.214Z,1.59
2018-03-06T04:22:23.163Z,1.58
2018-03-06T04:23:23.106Z,1.52
2018-03-06T04:24:23.100Z,1.48
2018-03-06T04:25:23.002Z,1.50
2018-03-06T04:26:22.997Z,1.55
2018-03-06T04:27:22.894Z,1.42
2018-03-06T04:28:22.840Z,1.48
2018-03-06T04:29:22.788Z,1.41
2018-03-06T04:30:22.733Z,1.50
2018-03-06T04:31:22.682Z,1.48
2018-03-06T04:32:22.626Z,1.48
2018-03-06T04:33:22.573Z,1.51
2018-03-06T04:34:22.520Z,1.45
2018-03-06T04:35:22.465Z,1.54
2018-03-06T04:36:22.412Z,1.45
2018-03-06T04:37:22.359Z,1.52
2018-03-06T04:38:22.305Z,1.44
2018-03-06T04:39:22.253Z,1.54
2018-03-06T04:40:22.198Z,1.59
2018-03-06T04:41:22.144Z,1.62
2018-03-06T04:42:22.091Z,1.44
2018-03-06T04:43:22.037Z,1.58
2018-03-06T04:44:21.984Z,1.59
2018-03-06T04:45:21.930Z,1.59
2018-03-06T04:46:21.879Z,1.59
2018-03-06T04:47:21.823Z,1.58
2018-03-06T04:48:21.770Z,1.55
2018-03-06T04:49:21.717Z,1.62
2018-03-06T04:50:21.665Z,1.60
2018-03-06T04:51:21.609Z,1.52
2018-03-06T04:52:21.556Z,1.52
2018-03-06T04:53:21.501Z,1.58
2018-03-06T04:54:21.450Z,1.54
2018-03-06T04:55:21.398Z,1.44
2018-03-06T04:56:21.342Z,1.48
2018-03-06T04:57:21.289Z,1.58
2018-03-06T04:58:21.236Z,1.54
2018-03-06T04:59:21.182Z,1.58
2018-03-06T05:00:21.129Z,1.59
2018-03-06T05:01:21.076Z,1.48
2018-03-06T05:02:21.025Z,1.50
2018-03-06T05:03:21.004Z,1.48
2018-03-06T05:04:20.915Z,1.45
2018-03-06T05:05:20.911Z,1.54
2018-03-06T05:06:20.809Z,1.50
2018-03-06T05:07:20.760Z,1.47
2018-03-06T05:08:20.701Z,1.50
2018-03-06T05:09:20.647Z,1.44
2018-03-06T05:10:20.595Z,1.58
2018-03-06T05:11:20.545Z,1.52
2018-03-06T05:12:20.487Z,1.47
2018-03-06T05:13:20.433Z,1.50
2018-03-06T05:14:20.381Z,1.51
2018-03-06T05:15:20.326Z,1.50
2018-03-06T05:16:20.274Z,1.37
2018-03-06T05:17:20.221Z,1.45
2018-03-06T05:18:20.179Z,1.44
2018-03-06T05:19:20.112Z,1.47
2018-03-06T05:20:20.059Z,1.42
2018-03-06T05:21:20.007Z,1.42
2018-03-06T05:22:19.952Z,1.44
2018-03-06T05:23:19.898Z,1.44
2018-03-06T05:24:19.845Z,1.42
2018-03-06T05:25:19.791Z,1.51
2018-03-06T05:26:19.739Z,1.44
2018-03-06T05:27:19.689Z,1.47
2018-03-06T05:28:19.630Z,1.41
2018-03-06T05:29:19.578Z,1.45
2018-03-06T05:30:19.524Z,1.45
2018-03-06T05:31:19.470Z,1.44
2018-03-06T05:32:19.417Z,1.42
2018-03-06T05:33:19.366Z,1.45
2018-03-06T05:34:19.310Z,1.48
2018-03-06T05:35:19.256Z,1.44
2018-03-06T05:36:19.203Z,1.41
2018-03-06T05:37:19.149Z,1.41
2018-03-06T05:38:19.097Z,1.42
2018-03-06T05:39:19.041Z,1.50
2018-03-06T05:40:18.992Z,1.47
2018-03-06T05:41:18.935Z,1.42
2018-03-06T05:42:18.882Z,1.41
2018-03-06T05:43:18.827Z,1.44
2018-03-06T05:44:18.773Z,1.45
2018-03-06T05:45:18.770Z,1.51
2018-03-06T05:46:18.666Z,1.47
2018-03-06T05:47:18.612Z,1.41
2018-03-06T05:48:18.559Z,1.45
2018-03-06T05:49:18.506Z,1.48
2018-03-06T05:50:18.453Z,1.45
2018-03-06T05:51:18.398Z,1.48
2018-03-06T05:52:18.345Z,1.47
2018-03-06T05:53:18.292Z,1.51
2018-03-06T05:54:18.238Z,1.37
2018-03-06T05:55:18.184Z,1.47
2018-03-06T05:56:18.130Z,1.47
2018-03-06T05:57:18.127Z,1.51
2018-03-06T05:58:18.024Z,1.54
2018-03-06T05:59:17.969Z,1.48
2018-03-06T06:00:17.919Z,1.47
2018-03-06T06:01:17.863Z,1.50
2018-03-06T06:02:17.810Z,1.51
2018-03-06T06:03:17.755Z,1.51
2018-03-06T06:04:17.702Z,1.52
2018-03-06T06:05:17.650Z,1.50
2018-03-06T06:06:17.595Z,1.58
2018-03-06T06:07:17.541Z,1.52
2018-03-06T06:08:17.488Z,1.54
2018-03-06T06:09:17.434Z,1.69
2018-03-06T06:10:17.382Z,1.70
2018-03-06T06:11:17.326Z,1.69
2018-03-06T06:12:17.273Z,1.76
2018-03-06T06:13:17.219Z,1.73
2018-03-06T06:14:17.165Z,1.83
2018-03-06T06:15:17.112Z,1.83
2018-03-06T06:16:17.059Z,1.86
2018-03-06T06:17:17.006Z,1.84
2018-03-06T06:18:16.953Z,1.91
2018-03-06T06:19:16.921Z,1.99
2018-03-06T06:20:16.845Z,1.98
2018-03-06T06:21:16.797Z,2.05
2018-03-06T06:22:16.739Z,2.09
2018-03-06T06:23:16.685Z,2.09
2018-03-06T06:24:16.633Z,2.06
2018-03-06T06:25:16.579Z,2.10
2018-03-06T06:26:16.526Z,2.16
2018-03-06T06:27:16.473Z,2.16
2018-03-06T06:28:16.421Z,2.24
2018-03-06T06:29:16.369Z,2.23
2018-03-06T06:30:16.314Z,2.23
2018-03-06T06:31:16.260Z,2.25
2018-03-06T06:32:16.206Z,2.21
2018-03-06T06:33:16.155Z,2.38
2018-03-06T06:34:16.101Z,2.30
2018-03-06T06:35:16.069Z,2.48
2018-03-06T06:36:15.995Z,2.48
2018-03-06T06:37:15.942Z,2.54
2018-03-06T06:38:15.888Z,2.59
2018-03-06T06:39:15.874Z,2.59
2018-03-06T06:40:15.786Z,2.59
2018-03-06T06:41:15.730Z,2.67
2018-03-06T06:42:15.684Z,2.66
2018-03-06T06:43:15.625Z,2.66
2018-03-06T06:44:15.572Z,2.69
2018-03-06T06:45:15.518Z,2.81
2018-03-06T06:46:15.467Z,2.89
2018-03-06T06:47:15.413Z,2.97
2018-03-06T06:48:15.361Z,2.95
2018-03-06T06:49:15.308Z,3.03
2018-03-06T06:50:15.256Z,3.00
2018-03-06T06:51:15.203Z,3.17
2018-03-06T06:52:15.151Z,3.13
2018-03-06T06:53:15.098Z,3.28
2018-03-06T06:54:15.047Z,3.33
2018-03-06T06:55:14.995Z,3.45
2018-03-06T06:56:14.943Z,3.55
2018-03-06T06:57:14.890Z,3.51
2018-03-06T06:58:14.839Z,3.65
2018-03-06T06:59:14.785Z,3.68
2018-03-06T07:00:14.734Z,3.84
2018-03-06T07:01:14.682Z,3.87
2018-03-06T07:02:14.636Z,4.02
2018-03-06T07:03:14.578Z,4.06
2018-03-06T07:04:14.628Z,4.23
2018-03-06T07:05:14.475Z,4.30
2018-03-06T07:06:14.424Z,4.45
2018-03-06T07:07:14.372Z,4.52
2018-03-06T07:08:14.321Z,4.65
2018-03-06T07:09:14.271Z,4.70
2018-03-06T07:10:14.270Z,4.75
2018-03-06T07:11:14.168Z,4.86
2018-03-06T07:12:14.167Z,4.92
2018-03-06T07:13:14.095Z,5.02
2018-03-06T07:14:14.020Z,5.12
2018-03-06T07:15:13.967Z,5.20
2018-03-06T07:16:13.914Z,5.30
2018-03-06T07:17:13.863Z,5.40
2018-03-06T07:18:13.813Z,5.60
2018-03-06T07:19:13.762Z,5.67
2018-03-06T07:20:13.712Z,5.78
2018-03-06T07:21:13.682Z,5.91
2018-03-06T07:22:13.612Z,6.00
2018-03-06T07:23:13.562Z,6.15
2018-03-06T07:24:13.518Z,6.19
2018-03-06T07:25:13.463Z,6.18
2018-03-06T07:26:13.413Z,6.28
2018-03-06T07:27:13.362Z,6.28
2018-03-06T07:28:13.316Z,6.37
2018-03-06T07:29:13.264Z,6.28
2018-03-06T07:30:13.213Z,6.37
2018-03-06T07:31:13.170Z,6.25
2018-03-06T07:32:13.115Z,6.34
2018-03-06T07:33:13.067Z,6.48
2018-03-06T07:34:13.018Z,6.55
2018-03-06T07:35:12.968Z,6.74
2018-03-06T07:36:13.007Z,6.79
2018-03-06T07:37:12.870Z,7.03
2018-03-06T07:38:12.821Z,7.21
2018-03-06T07:39:12.772Z,7.32
2018-03-06T07:40:12.723Z,7.45
2018-03-06T07:41:12.675Z,7.58
2018-03-06T07:42:12.626Z,7.72
2018-03-06T07:43:12.576Z,7.79
2018-03-06T07:44:12.533Z,7.97
2018-03-06T07:45:12.480Z,7.97
2018-03-06T07:46:12.431Z,8.08
2018-03-06T07:47:12.385Z,8.20
2018-03-06T07:48:12.337Z,8.28
2018-03-06T07:49:12.289Z,8.28
2018-03-06T07:50:12.241Z,8.29
2018-03-06T07:51:12.207Z,8.45
2018-03-06T07:52:12.145Z,8.36
2018-03-06T07:53:12.097Z,8.38
2018-03-06T07:54:12.051Z,8.40
2018-03-06T07:55:12.003Z,8.47
2018-03-06T07:56:11.955Z,8.63
2018-03-06T07:57:11.958Z,8.61
2018-03-06T07:58:11.861Z,8.61
2018-03-06T07:59:11.813Z,8.66
2018-03-06T08:00:11.768Z,8.68
2018-03-06T08:01:11.719Z,8.83
2018-03-06T08:02:11.673Z,8.95
2018-03-06T08:03:11.624Z,9.01
2018-03-06T08:04:11.577Z,9.17
2018-03-06T08:05:11.532Z,9.14
2018-03-06T08:06:11.485Z,9.21
2018-03-06T08:07:11.436Z,9.29
2018-03-06T08:08:11.393Z,9.14
2018-03-06T08:09:11.345Z,9.11
2018-03-06T08:10:11.301Z,9.15
2018-03-06T08:11:11.254Z,9.18
2018-03-06T08:12:11.204Z,9.08
2018-03-06T08:13:11.158Z,9.15
2018-03-06T08:14:11.111Z,9.28
2018-03-06T08:15:11.065Z,9.33
2018-03-06T08:16:11.022Z,9.32
2018-03-06T08:17:10.972Z,9.36
2018-03-06T08:18:10.928Z,9.26
2018-03-06T08:19:10.882Z,9.24
2018-03-06T08:20:10.834Z,9.10
2018-03-06T08:21:10.790Z,9.29
2018-03-06T08:22:10.742Z,9.36
2018-03-06T08:23:10.697Z,9.57
2018-03-06T08:24:10.658Z,9.86
2018-03-06T08:25:10.604Z,10.04
2018-03-06T08:26:10.558Z,10.26
2018-03-06T08:27:10.514Z,10.27
2018-03-06T08:28:10.466Z,10.15
2018-03-06T08:29:10.421Z,10.29
2018-03-06T08:30:10.376Z,10.52
2018-03-06T08:31:10.335Z,10.81
2018-03-06T08:32:10.284Z,11.10
2018-03-06T08:33:10.240Z,11.29
2018-03-06T08:34:10.195Z,11.44
2018-03-06T08:35:10.149Z,11.62
2018-03-06T08:36:10.104Z,11.78
2018-03-06T08:37:10.060Z,11.69
2018-03-06T08:38:10.015Z,11.73
2018-03-06T08:39:09.970Z,11.83
2018-03-06T08:40:09.926Z,11.85
2018-03-06T08:41:09.882Z,12.02
2018-03-06T08:42:09.844Z,11.96
2018-03-06T08:43:09.793Z,11.91
2018-03-06T08:44:09.749Z,11.70
2018-03-06T08:45:09.705Z,11.62
2018-03-06T08:46:09.660Z,11.73
2018-03-06T08:47:09.616Z,11.91
2018-03-06T08:48:09.573Z,12.07
2018-03-06T08:49:09.529Z,12.16
2018-03-06T08:50:09.486Z,12.52
2018-03-06T08:51:09.440Z,12.57
2018-03-06T08:52:09.398Z,12.79
2018-03-06T08:53:09.355Z,12.86
2018-03-06T08:54:09.317Z,12.96
2018-03-06T08:55:09.267Z,13.10
2018-03-06T08:56:09.223Z,13.08
2018-03-06T08:57:09.181Z,13.17
2018-03-06T08:58:09.138Z,13.20
2018-03-06T08:59:09.099Z,13.26
2018-03-06T09:00:09.050Z,13.20
2018-03-06T09:01:09.008Z,13.26
2018-03-06T09:02:08.965Z,13.30
2018-03-06T09:03:08.924Z,13.33
2018-03-06T09:04:08.879Z,13.29
2018-03-06T09:05:08.837Z,13.25
2018-03-06T09:06:08.794Z,13.08
2018-03-06T09:07:08.750Z,13.11
2018-03-06T09:08:08.707Z,13.14
2018-03-06T09:09:08.665Z,13.12
2018-03-06T09:10:08.621Z,13.15
2018-03-06T09:11:08.579Z,13.08
2018-03-06T09:12:08.536Z,12.97
2018-03-06T09:13:08.492Z,12.78
2018-03-06T09:14:08.450Z,12.72
2018-03-06T09:15:08.411Z,12.57
2018-03-06T09:16:08.364Z,12.52
2018-03-06T09:17:08.321Z,12.37
2018-03-06T09:18:08.277Z,12.34
2018-03-06T09:19:08.234Z,12.27
2018-03-06T09:20:08.191Z,12.20
2018-03-06T09:21:08.148Z,12.12
2018-03-06T09:22:08.118Z,12.07
2018-03-06T09:23:08.062Z,11.98
2018-03-06T09:24:08.022Z,11.86
2018-03-06T09:25:08.025Z,11.72
2018-03-06T09:26:07.931Z,11.60
2018-03-06T09:27:07.890Z,11.58
2018-03-06T09:28:07.844Z,11.54
2018-03-06T09:29:07.799Z,11.44
2018-03-06T09:30:07.757Z,11.39
2018-03-06T09:31:07.712Z,11.33
2018-03-06T09:32:07.669Z,11.22
2018-03-06T09:33:07.625Z,11.33
2018-03-06T09:34:07.582Z,11.44
2018-03-06T09:35:07.537Z,11.43
2018-03-06T09:36:07.493Z,11.42
2018-03-06T09:37:07.449Z,11.51
2018-03-06T09:38:07.406Z,11.55
2018-03-06T09:39:07.361Z,11.57
2018-03-06T09:40:07.318Z,11.65
2018-03-06T09:41:07.274Z,11.62
2018-03-06T09:42:07.229Z,11.57
2018-03-06T09:43:07.185Z,11.52
2018-03-06T09:44:07.145Z,11.43
2018-03-06T09:45:07.098Z,11.44
2018-03-06T09:46:07.054Z,11.40
2018-03-06T09:47:07.012Z,11.17
2018-03-06T09:48:06.963Z,11.15
2018-03-06T09:49:06.920Z,11.11
2018-03-06T09:50:06.877Z,11.03
2018-03-06T09:51:06.830Z,10.96
2018-03-06T09:52:06.787Z,10.63
2018-03-06T09:53:06.744Z,10.45
2018-03-06T09:54:06.698Z,10.26
2018-03-06T09:55:06.653Z,10.23
2018-03-06T09:56:06.610Z,10.27
2018-03-06T09:57:06.564Z,10.23
2018-03-06T09:58:06.519Z,10.12
2018-03-06T09:59:06.474Z,10.11
2018-03-06T10:00:06.429Z,9.89
2018-03-06T10:01:06.383Z,9.83
2018-03-06T10:02:06.339Z,9.72
2018-03-06T10:03:06.309Z,9.76
2018-03-06T10:04:06.247Z,9.75
2018-03-06T10:05:06.201Z,9.66
2018-03-06T10:06:06.164Z,9.74
2018-03-06T10:07:06.113Z,9.90
2018-03-06T10:08:06.080Z,9.94
2018-03-06T10:09:06.020Z,10.09
2018-03-06T10:10:05.974Z,9.99
2018-03-06T10:11:05.927Z,10.07
2018-03-06T10:12:05.882Z,10.07
2018-03-06T10:13:05.836Z,10.18
2018-03-06T10:14:05.791Z,10.33
2018-03-06T10:15:05.744Z,10.25
2018-03-06T10:16:05.699Z,10.33
2018-03-06T10:17:05.669Z,10.27
2018-03-06T10:18:05.608Z,10.26
2018-03-06T10:19:05.562Z,10.22
2018-03-06T10:20:05.516Z,10.15
2018-03-06T10:21:05.471Z,10.25
2018-03-06T10:22:05.425Z,10.22
2018-03-06T10:23:05.378Z,10.26
2018-03-06T10:24:05.338Z,10.27
2018-03-06T10:25:05.287Z,10.41
2018-03-06T10:26:05.242Z,10.38
2018-03-06T10:27:05.195Z,10.42
2018-03-06T10:28:05.188Z,10.47
2018-03-06T10:29:05.104Z,10.45
2018-03-06T10:30:05.058Z,10.41
2018-03-06T10:31:05.017Z,10.34
2018-03-06T10:32:04.966Z,10.30
2018-03-06T10:33:04.922Z,10.30
2018-03-06T10:34:04.875Z,10.23
2018-03-06T10:35:04.832Z,10.18
2018-03-06T10:36:04.783Z,10.17
2018-03-06T10:37:04.738Z,10.20
2018-03-06T10:38:04.692Z,10.09
2018-03-06T10:39:04.645Z,10.01
2018-03-06T10:40:04.601Z,10.01
2018-03-06T10:41:04.554Z,10.14
2018-03-06T10:42:04.508Z,10.02
2018-03-06T10:43:04.462Z,9.87
2018-03-06T10:44:04.416Z,9.87
2018-03-06T10:45:04.370Z,9.94
2018-03-06T10:46:04.324Z,9.96
2018-03-06T10:47:04.318Z,10.08
2018-03-06T10:48:04.231Z,10.12
2018-03-06T10:49:04.185Z,10.08
2018-03-06T10:50:04.140Z,10.20
2018-03-06T10:51:04.092Z,10.14
2018-03-06T10:52:04.050Z,10.07
2018-03-06T10:53:04.001Z,10.15
2018-03-06T10:54:03.963Z,10.25
2018-03-06T10:55:03.909Z,10.27
2018-03-06T10:56:03.862Z,10.30
2018-03-06T10:57:03.822Z,10.33
2018-03-06T10:58:03.771Z,10.36
2018-03-06T10:59:03.774Z,10.27
2018-03-06T11:00:03.679Z,10.34
2018-03-06T11:01:03.633Z,10.44
2018-03-06T11:02:03.587Z,10.42
2018-03-06T11:03:03.541Z,10.38
2018-03-06T11:04:03.495Z,10.29
2018-03-06T11:05:03.449Z,10.23
2018-03-06T11:06:03.406Z,10.18
2018-03-06T11:07:03.358Z,10.26
2018-03-06T11:08:03.312Z,10.32
2018-03-06T11:09:03.268Z,10.26
2018-03-06T11:10:03.224Z,10.23
2018-03-06T11:11:03.173Z,10.17
2018-03-06T11:12:03.127Z,10.17
2018-03-06T11:13:03.081Z,10.14
2018-03-06T11:14:03.034Z,10.09
2018-03-06T11:15:02.988Z,10.20
2018-03-06T11:16:02.943Z,10.27
2018-03-06T11:17:02.897Z,10.34
2018-03-06T11:18:02.852Z,10.42
2018-03-06T11:19:02.812Z,10.47
2018-03-06T11:20:02.759Z,10.53
2018-03-06T11:21:02.714Z,10.48
2018-03-06T11:22:02.717Z,10.45
2018-03-06T11:23:02.640Z,10.63
2018-03-06T11:24:02.576Z,10.60
2018-03-06T11:25:02.573Z,10.67
2018-03-06T11:26:02.481Z,10.59
2018-03-06T11:27:02.436Z,10.64
2018-03-06T11:28:02.390Z,10.63
2018-03-06T11:29:02.344Z,10.68
2018-03-06T11:30:02.299Z,10.70
2018-03-06T11:31:02.252Z,10.68
2018-03-06T11:32:02.207Z,10.66
2018-03-06T11:33:02.161Z,10.48
2018-03-06T11:34:02.214Z,10.53
2018-03-06T11:35:02.069Z,10.53
2018-03-06T11:36:02.023Z,10.60
2018-03-06T11:37:01.977Z,10.56
2018-03-06T11:38:01.932Z,10.66
2018-03-06T11:39:01.886Z,10.59
2018-03-06T11:40:01.840Z,10.52
2018-03-06T11:41:01.797Z,10.45
2018-03-06T11:42:01.748Z,10.32
2018-03-06T11:43:01.702Z,10.30
2018-03-06T11:44:01.656Z,10.33
2018-03-06T11:45:01.610Z,10.30
2018-03-06T11:46:01.565Z,10.42
2018-03-06T11:47:01.567Z,10.41
2018-03-06T11:48:01.472Z,10.44
2018-03-06T11:49:01.426Z,10.44
2018-03-06T11:50:01.381Z,10.41
2018-03-06T11:51:01.334Z,10.44
2018-03-06T11:52:01.289Z,10.59
2018-03-06T11:53:01.243Z,10.45
2018-03-06T11:54:01.196Z,10.40
2018-03-06T11:55:01.154Z,10.48
2018-03-06T11:56:01.146Z,10.42
2018-03-06T11:57:01.059Z,10.52
2018-03-06T11:58:01.014Z,10.51
2018-03-06T11:59:00.966Z,10.52
2018-03-06T12:00:00.923Z,10.47
2018-03-06T12:01:00.876Z,10.47
2018-03-06T12:02:00.875Z,10.67
2018-03-06T12:03:00.783Z,10.63
2018-03-06T12:04:00.737Z,10.59
2018-03-06T12:05:00.692Z,10.68
2018-03-06T12:06:00.646Z,10.60
2018-03-06T12:07:00.598Z,10.52
2018-03-06T12:08:00.559Z,10.47
2018-03-06T12:09:00.514Z,10.40
2018-03-06T12:10:00.463Z,10.30
2018-03-06T12:11:00.466Z,10.33
2018-03-06T12:12:00.369Z,10.30
2018-03-06T12:13:00.324Z,10.36
2018-03-06T12:14:00.277Z,10.26
2018-03-06T12:15:00.231Z,10.25
2018-03-06T12:16:00.186Z,10.22
2018-03-06T12:17:00.140Z,10.12
2018-03-06T12:18:00.096Z,10.23
2018-03-06T12:19:00.048Z,10.30
2018-03-06T12:20:00.002Z,10.23
2018-03-06T12:20:59.959Z,10.26
2018-03-06T12:21:59.909Z,10.22
2018-03-06T12:22:59.863Z,10.34
2018-03-06T12:23:59.817Z,10.29
2018-03-06T12:24:59.772Z,10.30
2018-03-06T12:25:59.725Z,10.26
2018-03-06T12:26:59.682Z,10.30
2018-03-06T12:27:59.633Z,10.30
2018-03-06T12:28:59.587Z,10.27
2018-03-06T12:29:59.541Z,10.32
2018-03-06T12:30:59.493Z,10.27
2018-03-06T12:31:59.448Z,10.26
2018-03-06T12:32:59.402Z,10.29
2018-03-06T12:33:59.356Z,10.22
2018-03-06T12:34:59.309Z,10.30
2018-03-06T12:35:59.263Z,10.27
2018-03-06T12:36:59.216Z,10.30
2018-03-06T12:37:59.172Z,10.23
2018-03-06T12:38:59.124Z,10.18
2018-03-06T12:39:59.081Z,10.22
2018-03-06T12:40:59.031Z,10.17
2018-03-06T12:41:58.987Z,10.12
2018-03-06T12:42:58.939Z,10.09
2018-03-06T12:43:58.894Z,10.23
2018-03-06T12:44:58.848Z,10.18
2018-03-06T12:45:58.802Z,10.29
2018-03-06T12:46:58.756Z,10.27
2018-03-06T12:47:58.710Z,10.23
2018-03-06T12:48:58.663Z,10.23
2018-03-06T12:49:58.625Z,10.27
2018-03-06T12:50:58.570Z,10.27
2018-03-06T12:51:58.525Z,10.20
2018-03-06T12:52:58.477Z,10.15
2018-03-06T12:53:58.486Z,10.05
2018-03-06T12:54:58.461Z,10.09
2018-03-06T12:55:58.338Z,10.11
2018-03-06T12:56:58.293Z,10.07
2018-03-06T12:57:58.250Z,9.94
2018-03-06T12:58:58.200Z,10.01
2018-03-06T12:59:58.154Z,10.01
2018-03-06T13:00:58.107Z,9.93
2018-03-06T13:01:58.062Z,9.96
2018-03-06T13:02:58.069Z,9.96
2018-03-06T13:03:57.968Z,9.97
2018-03-06T13:04:57.923Z,9.97
2018-03-06T13:05:57.877Z,10.04
2018-03-06T13:06:57.830Z,10.07
2018-03-06T13:07:57.782Z,9.99
2018-03-06T13:08:57.738Z,10.05